createdAt,value
2018-07-10T00:02:20.794Z,2.37
2018-07-10T00:05:45.955Z,2.47
2018-07-10T00:09:33.478Z,2.00
2018-07-10T00:12:01.652Z,2.70
2018-07-10T00:14:29.774Z,2.43
2018-07-10T00:16:57.722Z,2.20
2018-07-10T00:19:25.858Z,2.00
2018-07-10T00:21:53.996Z,2.20
2018-07-10T00:24:21.908Z,1.90
2018-07-10T00:26:50.047Z,1.67
2018-07-10T00:29:18.185Z,1.57
2018-07-10T00:31:46.322Z,1.83
2018-07-10T00:34:14.458Z,2.17
2018-07-10T00:36:42.394Z,1.70
2018-07-10T00:39:10.875Z,1.53
2018-07-10T00:41:40.270Z,1.80
2018-07-10T00:44:08.863Z,1.70
2018-07-10T00:46:38.459Z,1.97
2018-07-10T00:49:06.751Z,1.80
2018-07-10T00:51:40.044Z,1.87
2018-07-10T00:54:08.526Z,2.10
2018-07-10T00:56:36.678Z,2.10
2018-07-10T00:59:05.802Z,2.40
2018-07-10T01:01:34.074Z,2.10
2018-07-10T01:04:02.231Z,2.70
2018-07-10T01:06:30.126Z,3.40
2018-07-10T01:08:58.038Z,2.40
2018-07-10T01:11:26.178Z,2.33
2018-07-10T01:13:54.325Z,2.53
2018-07-10T01:16:33.199Z,3.00
2018-07-10T01:19:02.101Z,2.67
2018-07-10T01:21:30.249Z,2.70
2018-07-10T01:24:01.639Z,3.07
2018-07-10T01:26:33.167Z,3.23
2018-07-10T01:29:06.004Z,3.10
2018-07-10T01:31:34.152Z,3.20
2018-07-10T01:34:02.291Z,3.07
2018-07-10T01:36:30.423Z,3.13
2018-07-10T01:38:58.345Z,3.40
2018-07-10T01:41:32.450Z,3.43
2018-07-10T01:44:00.570Z,2.63
2018-07-10T01:46:28.675Z,3.20
2018-07-10T01:48:56.781Z,2.77
2018-07-10T01:51:24.899Z,3.50
2018-07-10T01:53:52.778Z,3.10
2018-07-10T01:56:21.006Z,3.20
2018-07-10T01:58:49.131Z,2.90
2018-07-10T02:01:17.219Z,2.60
2018-07-10T02:03:45.347Z,2.70
2018-07-10T02:06:13.239Z,2.77
2018-07-10T02:08:41.379Z,2.50
2018-07-10T02:11:09.459Z,2.20
2018-07-10T02:13:37.584Z,2.30
2018-07-10T02:16:05.684Z,2.20
2018-07-10T02:18:33.799Z,2.47
2018-07-10T02:21:04.446Z,2.40
2018-07-10T02:23:37.169Z,2.07
2018-07-10T02:26:07.551Z,2.07
2018-07-10T02:28:35.700Z,2.00
2018-07-10T02:31:03.650Z,1.77
2018-07-10T02:33:31.980Z,2.00
2018-07-10T02:36:00.107Z,2.43
2018-07-10T02:38:27.998Z,1.83
2018-07-10T02:40:56.376Z,1.90
2018-07-10T02:43:24.612Z,1.70
2018-07-10T02:45:52.880Z,2.10
2018-07-10T02:48:21.429Z,2.20
2018-07-10T02:50:52.125Z,2.40
2018-07-10T02:53:19.998Z,1.80
2018-07-10T02:55:48.121Z,1.80
2018-07-10T02:58:16.226Z,1.87
2018-07-10T03:00:44.319Z,2.00
2018-07-10T03:03:12.419Z,3.47
2018-07-10T03:05:40.535Z,3.50
2018-07-10T03:08:08.641Z,3.27
2018-07-10T03:10:36.750Z,3.80
2018-07-10T03:13:04.864Z,3.33
2018-07-10T03:15:32.749Z,3.43
2018-07-10T03:18:00.881Z,3.30
2018-07-10T03:20:29.011Z,4.03
2018-07-10T03:22:57.138Z,3.50
2018-07-10T03:25:25.256Z,2.57
2018-07-10T03:27:53.361Z,3.33
2018-07-10T03:30:22.007Z,2.80
2018-07-10T03:32:50.095Z,2.63
2018-07-10T03:35:18.208Z,2.53
2018-07-10T03:37:46.311Z,2.37
2018-07-10T03:40:14.419Z,2.37
2018-07-10T03:42:42.527Z,2.27
2018-07-10T03:45:11.263Z,2.10
2018-07-10T03:47:39.420Z,2.60
2018-07-10T03:50:07.531Z,2.53
2018-07-10T03:52:36.643Z,2.30
2018-07-10T03:55:14.934Z,2.50
2018-07-10T03:57:43.043Z,2.57
2018-07-10T04:00:13.048Z,2.40
2018-07-10T04:02:45.722Z,2.50
2018-07-10T04:05:14.183Z,2.27
2018-07-10T04:07:42.476Z,2.90
2018-07-10T04:10:12.522Z,2.73
2018-07-10T04:12:41.501Z,2.90
2018-07-10T04:15:09.718Z,2.70
2018-07-10T04:18:15.411Z,2.60
2018-07-10T04:20:54.971Z,2.47
2018-07-10T04:23:24.331Z,2.40
2018-07-10T04:25:53.766Z,2.27
2018-07-10T04:28:29.509Z,2.27
2018-07-10T04:32:11.656Z,2.97
2018-07-10T04:34:39.762Z,2.53
2018-07-10T04:37:09.612Z,2.67
2018-07-10T04:39:38.397Z,2.10
2018-07-10T04:42:12.446Z,2.87
2018-07-10T04:44:41.385Z,2.20
2018-07-10T04:47:16.480Z,2.10
2018-07-10T04:49:52.067Z,1.70
2018-07-10T04:52:26.205Z,1.73
2018-07-10T04:55:03.227Z,1.80
2018-07-10T04:57:33.089Z,1.97
2018-07-10T05:00:03.992Z,1.90
2018-07-10T05:02:32.960Z,2.10
2018-07-10T05:05:01.208Z,1.97
2018-07-10T05:07:29.763Z,2.10
2018-07-10T05:09:57.916Z,2.00
2018-07-10T05:12:26.033Z,1.60
2018-07-10T05:14:55.069Z,1.67
2018-07-10T05:17:23.168Z,1.67
2018-07-10T05:19:51.290Z,1.90
2018-07-10T05:22:19.169Z,1.83
2018-07-10T05:24:47.283Z,1.80
2018-07-10T05:27:15.854Z,1.60
2018-07-10T05:29:44.831Z,1.77
2018-07-10T05:32:13.376Z,1.77
2018-07-10T05:34:41.629Z,2.00
2018-07-10T05:37:11.031Z,1.90
2018-07-10T05:39:43.052Z,1.97
2018-07-10T05:42:11.451Z,1.67
2018-07-10T05:44:39.580Z,1.57
2018-07-10T05:47:08.052Z,1.50
2018-07-10T05:49:38.795Z,1.67
2018-07-10T05:52:06.774Z,1.70
2018-07-10T05:54:37.102Z,1.80
2018-07-10T05:57:05.802Z,1.70
2018-07-10T05:59:33.944Z,1.63
2018-07-10T06:02:01.850Z,1.73
2018-07-10T06:04:30.004Z,2.27
2018-07-10T06:06:59.210Z,1.70
2018-07-10T06:09:27.331Z,1.40
2018-07-10T06:11:55.435Z,1.90
2018-07-10T06:14:23.578Z,2.77
2018-07-10T06:16:51.716Z,2.10
2018-07-10T06:19:19.804Z,2.17
2018-07-10T06:21:49.780Z,2.10
2018-07-10T06:24:24.004Z,2.20
2018-07-10T06:26:58.974Z,2.20
2018-07-10T06:29:35.707Z,1.97
2018-07-10T06:32:05.015Z,1.83
2018-07-10T06:34:35.688Z,1.87
2018-07-10T06:37:05.214Z,1.70
2018-07-10T06:39:34.343Z,1.70
2018-07-10T06:42:08.056Z,1.50
2018-07-10T06:44:36.992Z,1.77
2018-07-10T06:47:14.266Z,1.50
2018-07-10T06:49:42.380Z,1.20
2018-07-10T06:52:16.037Z,1.33
2018-07-10T06:55:18.415Z,1.43
2018-07-10T06:57:49.004Z,1.47
2018-07-10T07:00:17.133Z,1.50
2018-07-10T07:02:45.259Z,1.87
2018-07-10T07:05:13.363Z,1.10
2018-07-10T07:07:41.826Z,0.97
2018-07-10T07:10:11.151Z,1.30
2018-07-10T07:12:39.981Z,1.20
2018-07-10T07:15:09.653Z,1.33
2018-07-10T07:17:40.453Z,1.50
2018-07-10T07:20:08.716Z,1.27
2018-07-10T07:22:36.839Z,1.30
2018-07-10T07:25:04.985Z,1.60
2018-07-10T07:27:33.120Z,1.57
2018-07-10T07:30:01.657Z,2.33
2018-07-10T07:32:30.568Z,1.97
2018-07-10T07:34:58.703Z,1.87
2018-07-10T07:37:27.330Z,2.57
2018-07-10T07:39:56.196Z,1.70
2018-07-10T07:42:25.774Z,1.60
2018-07-10T07:44:53.876Z,1.70
2018-07-10T07:47:24.912Z,1.93
2018-07-10T07:49:53.707Z,2.20
2018-07-10T07:52:23.699Z,2.40
2018-07-10T07:54:51.808Z,1.60
2018-07-10T07:57:21.472Z,1.73
2018-07-10T07:59:49.590Z,1.73
2018-07-10T08:02:17.709Z,1.63
2018-07-10T08:04:45.815Z,2.17
2018-07-10T08:07:13.931Z,1.80
2018-07-10T08:09:42.038Z,1.80
2018-07-10T08:12:10.145Z,2.03
2018-07-10T08:14:38.248Z,2.30
2018-07-10T08:17:06.363Z,2.47
2018-07-10T08:19:34.543Z,2.50
2018-07-10T08:22:02.754Z,2.93
2018-07-10T08:24:30.694Z,2.27
2018-07-10T08:26:59.174Z,2.50
2018-07-10T08:29:28.956Z,2.97
2018-07-10T08:31:57.448Z,2.00
2018-07-10T08:34:26.153Z,9.50
2018-07-10T08:36:54.447Z,3.13
2018-07-10T08:39:22.674Z,3.67
2018-07-10T08:41:50.775Z,2.27
2018-07-10T08:44:19.851Z,2.50
2018-07-10T08:46:48.856Z,2.10
2018-07-10T08:49:16.957Z,3.37
2018-07-10T08:51:47.449Z,2.43
2018-07-10T08:54:15.999Z,3.00
2018-07-10T08:56:44.103Z,2.90
2018-07-10T08:59:12.215Z,2.60
2018-07-10T09:01:40.091Z,1.97
2018-07-10T09:04:07.983Z,2.30
2018-07-10T09:06:36.088Z,2.03
2018-07-10T09:09:04.756Z,2.10
2018-07-10T09:11:32.855Z,2.40
2018-07-10T09:14:01.121Z,4.60
2018-07-10T09:16:28.973Z,2.30
2018-07-10T09:18:57.102Z,2.03
2018-07-10T09:21:24.999Z,1.93
2018-07-10T09:23:53.112Z,1.93
2018-07-10T09:26:21.231Z,1.90
2018-07-10T09:28:49.344Z,2.23
2018-07-10T09:31:17.470Z,2.00
2018-07-10T09:33:45.609Z,2.00
2018-07-10T09:36:13.759Z,2.23
2018-07-10T09:38:41.902Z,2.30
2018-07-10T09:41:10.017Z,3.67
2018-07-10T09:43:38.777Z,1.67
2018-07-10T09:46:06.889Z,2.00
2018-07-10T09:48:34.999Z,2.30
2018-07-10T09:51:03.223Z,2.00
2018-07-10T09:53:31.343Z,1.80
2018-07-10T09:55:59.444Z,1.60
2018-07-10T09:58:27.576Z,2.00
2018-07-10T10:01:01.303Z,1.80
2018-07-10T10:03:29.571Z,2.17
2018-07-10T10:05:58.314Z,1.83
2018-07-10T10:08:26.442Z,1.67
2018-07-10T10:10:54.346Z,1.57
2018-07-10T10:13:22.462Z,1.50
2018-07-10T10:15:50.579Z,1.70
2018-07-10T10:18:18.695Z,1.67
2018-07-10T10:20:46.575Z,2.07
2018-07-10T10:23:14.916Z,1.67
2018-07-10T10:25:47.806Z,1.60
2018-07-10T10:28:16.032Z,1.60
2018-07-10T10:30:44.167Z,1.70
2018-07-10T10:33:12.051Z,1.70
2018-07-10T10:35:40.202Z,1.70
2018-07-10T10:38:08.336Z,1.90
2018-07-10T10:40:38.272Z,1.83
2018-07-10T10:43:08.913Z,1.50
2018-07-10T10:45:38.772Z,1.57
2018-07-10T10:48:07.404Z,1.63
2018-07-10T10:50:36.360Z,2.43
2018-07-10T10:53:04.675Z,1.40
2018-07-10T10:55:32.796Z,1.80
2018-07-10T10:58:01.519Z,1.87
2018-07-10T11:00:29.900Z,1.80
2018-07-10T11:02:57.999Z,1.50
2018-07-10T11:05:26.183Z,1.87
2018-07-10T11:07:54.051Z,1.30
2018-07-10T11:10:21.950Z,1.43
2018-07-10T11:12:50.059Z,1.40
2018-07-10T11:15:18.209Z,1.63
2018-07-10T11:17:51.284Z,1.90
2018-07-10T11:20:59.840Z,1.40
2018-07-10T11:23:42.739Z,1.70
2018-07-10T11:26:12.475Z,1.53
2018-07-10T11:28:40.587Z,1.30
2018-07-10T11:31:08.689Z,1.73
2018-07-10T11:33:36.808Z,1.40
2018-07-10T11:36:05.174Z,1.57
2018-07-10T11:38:32.812Z,1.40
2018-07-10T11:41:00.916Z,1.60
2018-07-10T11:43:28.820Z,1.50
2018-07-10T11:45:56.932Z,1.50
2018-07-10T11:48:25.028Z,1.60
2018-07-10T11:50:52.924Z,1.50
2018-07-10T11:53:21.031Z,1.60
2018-07-10T11:55:49.148Z,1.40
2018-07-10T11:58:17.015Z,1.83
2018-07-10T12:00:44.917Z,1.80
2018-07-10T12:03:13.029Z,1.80
2018-07-10T12:05:41.242Z,1.87
2018-07-10T12:08:09.367Z,1.63
2018-07-10T12:10:38.169Z,1.67
2018-07-10T12:13:06.644Z,1.60
2018-07-10T12:15:34.779Z,1.83
2018-07-10T12:18:02.909Z,1.73
2018-07-10T12:20:34.288Z,1.60
2018-07-10T12:23:04.096Z,1.60
2018-07-10T12:25:34.479Z,1.90
2018-07-10T12:28:02.888Z,1.90
2018-07-10T12:30:30.909Z,1.53
2018-07-10T12:32:58.999Z,1.50
2018-07-10T12:35:27.387Z,2.10
2018-07-10T12:37:55.487Z,1.70
2018-07-10T12:40:23.607Z,1.90
2018-07-10T12:42:52.462Z,1.60
2018-07-10T12:45:20.620Z,2.10
2018-07-10T12:47:48.804Z,2.03
2018-07-10T12:50:16.908Z,1.97
2018-07-10T12:52:45.018Z,1.70
2018-07-10T12:55:13.951Z,1.83
2018-07-10T12:57:44.466Z,1.80
2018-07-10T13:00:12.827Z,2.07
2018-07-10T13:02:42.010Z,2.47
2018-07-10T13:05:11.667Z,2.30
2018-07-10T13:07:39.778Z,2.00
2018-07-10T13:10:07.954Z,2.30
2018-07-10T13:12:36.223Z,2.63
2018-07-10T13:15:04.379Z,2.43
2018-07-10T13:17:32.484Z,2.37
2018-07-10T13:20:02.911Z,2.40
2018-07-10T13:22:31.022Z,2.83
2018-07-10T13:24:59.205Z,2.70
2018-07-10T13:27:27.319Z,2.60
2018-07-10T13:29:55.448Z,3.00
2018-07-10T13:32:23.649Z,3.47
2018-07-10T13:34:51.799Z,3.27
2018-07-10T13:37:23.519Z,3.57
2018-07-10T13:39:51.599Z,3.03
2018-07-10T13:42:20.095Z,3.23
2018-07-10T13:44:48.319Z,3.30
2018-07-10T13:47:16.429Z,3.40
2018-07-10T13:49:44.555Z,3.27
2018-07-10T13:52:12.683Z,4.30
2018-07-10T13:54:40.803Z,4.17
2018-07-10T13:57:08.905Z,4.57
2018-07-10T13:59:36.786Z,4.43
2018-07-10T14:02:04.899Z,4.27
2018-07-10T14:04:33.030Z,4.70
2018-07-10T14:07:00.912Z,5.07
2018-07-10T14:09:29.017Z,5.47
2018-07-10T14:11:57.124Z,5.87
2018-07-10T14:14:25.003Z,5.60
2018-07-10T14:16:53.148Z,5.53
2018-07-10T14:19:21.255Z,5.57
2018-07-10T14:21:49.380Z,5.50
2018-07-10T14:24:17.491Z,5.97
2018-07-10T14:26:45.387Z,5.73
2018-07-10T14:29:13.495Z,4.97
2018-07-10T14:31:41.632Z,5.03
2018-07-10T14:34:09.746Z,5.03
2018-07-10T14:36:37.860Z,4.63
2018-07-10T14:39:06.028Z,4.70
2018-07-10T14:41:34.131Z,4.87
2018-07-10T14:44:02.266Z,4.60
2018-07-10T14:46:30.339Z,4.33
2018-07-10T14:49:00.239Z,4.70
2018-07-10T14:51:33.840Z,5.10
2018-07-10T14:54:01.728Z,4.57
2018-07-10T14:56:29.853Z,5.17
2018-07-10T14:58:58.061Z,5.47
2018-07-10T15:01:26.160Z,5.00
2018-07-10T15:03:54.279Z,5.03
2018-07-10T15:06:22.383Z,5.00
2018-07-10T15:08:50.511Z,5.20
2018-07-10T15:11:18.628Z,5.23
2018-07-10T15:13:52.274Z,5.20
2018-07-10T15:16:20.400Z,5.10
2018-07-10T15:18:49.283Z,5.40
2018-07-10T15:21:17.471Z,5.50
2018-07-10T15:23:45.609Z,5.57
2018-07-10T15:26:13.728Z,4.97
2018-07-10T15:28:41.872Z,5.10
2018-07-10T15:31:09.772Z,5.13
2018-07-10T15:33:37.874Z,5.40
2018-07-10T15:36:06.096Z,5.40
2018-07-10T15:38:33.979Z,4.80
2018-07-10T15:41:02.096Z,5.23
2018-07-10T15:43:30.287Z,5.00
2018-07-10T15:45:58.444Z,4.90
2018-07-10T15:48:26.747Z,4.83
2018-07-10T15:50:55.186Z,4.87
2018-07-10T15:53:23.307Z,5.00
2018-07-10T15:55:51.254Z,4.77
2018-07-10T15:58:19.363Z,4.90
2018-07-10T16:00:47.467Z,4.80
2018-07-10T16:03:15.631Z,4.70
2018-07-10T16:05:44.384Z,4.93
2018-07-10T16:08:13.787Z,5.43
2018-07-10T16:10:42.162Z,4.10
2018-07-10T16:13:10.886Z,4.63
2018-07-10T16:15:39.011Z,4.53
2018-07-10T16:18:07.174Z,4.70
2018-07-10T16:20:37.151Z,4.83
2018-07-10T16:23:05.903Z,4.37
2018-07-10T16:25:34.367Z,4.40
2018-07-10T16:28:13.267Z,5.00
2018-07-10T16:30:41.384Z,6.27
2018-07-10T16:33:10.215Z,6.30
2018-07-10T16:35:38.333Z,6.53
2018-07-10T16:38:06.731Z,6.80
2018-07-10T16:40:34.596Z,6.77
2018-07-10T16:43:07.145Z,7.10
2018-07-10T16:45:37.623Z,7.03
2018-07-10T16:48:23.432Z,6.70
2018-07-10T16:50:58.431Z,6.97
2018-07-10T16:53:31.075Z,6.63
2018-07-10T16:55:59.176Z,6.70
2018-07-10T16:58:27.579Z,6.67
2018-07-10T17:00:56.157Z,6.80
2018-07-10T17:03:24.404Z,7.07
2018-07-10T17:05:52.531Z,6.23
2018-07-10T17:08:20.663Z,6.57
2018-07-10T17:10:48.775Z,5.97
2018-07-10T17:13:16.981Z,6.07
2018-07-10T17:15:44.859Z,5.80
2018-07-10T17:18:13.535Z,5.90
2018-07-10T17:20:41.878Z,5.50
2018-07-10T17:23:09.914Z,5.17
2018-07-10T17:25:38.007Z,4.97
2018-07-10T17:28:06.900Z,5.10
2018-07-10T17:30:34.989Z,4.80
2018-07-10T17:33:10.018Z,5.40
2018-07-10T17:35:38.076Z,6.03
2018-07-10T17:38:06.692Z,5.73
2018-07-10T17:40:34.976Z,5.80
2018-07-10T17:43:03.079Z,5.63
2018-07-10T17:45:31.187Z,5.93
2018-07-10T17:47:59.279Z,5.83
2018-07-10T17:50:27.389Z,5.70
2018-07-10T17:52:55.851Z,6.67
2018-07-10T17:55:23.733Z,6.53
2018-07-10T17:57:58.443Z,7.00
2018-07-10T18:00:26.327Z,7.07
2018-07-10T18:02:54.779Z,7.00
2018-07-10T18:05:22.880Z,7.47
2018-07-10T18:07:51.071Z,8.17
2018-07-10T18:10:19.172Z,7.80
2018-07-10T18:12:47.387Z,7.53
2018-07-10T18:15:15.259Z,7.70
2018-07-10T18:17:43.391Z,8.23
2018-07-10T18:20:11.620Z,8.00
2018-07-10T18:22:39.905Z,7.93
2018-07-10T18:25:07.938Z,8.40
2018-07-10T18:27:36.043Z,8.47
2018-07-10T18:30:04.156Z,9.13
2018-07-10T18:32:32.292Z,8.90
2018-07-10T18:35:00.411Z,10.20
2018-07-10T18:37:28.545Z,9.37
2018-07-10T18:39:56.655Z,9.07
2018-07-10T18:42:24.957Z,9.07
2018-07-10T18:44:52.889Z,9.20
2018-07-10T18:47:20.991Z,9.03
2018-07-10T18:49:51.010Z,9.33
2018-07-10T18:52:21.022Z,7.97
2018-07-10T18:54:49.140Z,4.23
2018-07-10T18:57:29.238Z,4.10
2018-07-10T19:00:03.636Z,4.00
2018-07-10T19:02:53.070Z,4.70
2018-07-10T19:05:21.563Z,5.10
2018-07-10T19:07:50.774Z,5.03
2018-07-10T19:10:18.904Z,6.80
2018-07-10T19:12:46.991Z,5.93
2018-07-10T19:15:15.107Z,6.17
2018-07-10T19:17:43.246Z,6.53
2018-07-10T19:20:12.200Z,8.40
2018-07-10T19:22:45.924Z,7.70
2018-07-10T19:25:14.871Z,8.07
2018-07-10T19:27:44.691Z,7.10
2018-07-10T19:30:12.880Z,8.37
2018-07-10T19:32:40.949Z,6.70
2018-07-10T19:35:09.902Z,7.43
2018-07-10T19:37:38.307Z,7.97
2018-07-10T19:40:07.111Z,6.73
2018-07-10T19:42:36.891Z,8.10
2018-07-10T19:45:05.350Z,7.53
2018-07-10T19:47:33.492Z,7.27
2018-07-10T19:50:07.499Z,7.17
2018-07-10T19:52:35.404Z,8.53
2018-07-10T19:55:03.528Z,7.27
2018-07-10T19:57:35.600Z,7.90
2018-07-10T20:00:03.683Z,7.83
2018-07-10T20:02:32.056Z,8.20
2018-07-10T20:05:01.767Z,7.70
2018-07-10T20:07:31.917Z,7.80
2018-07-10T20:10:04.188Z,8.20
2018-07-10T20:12:39.688Z,8.13
2018-07-10T20:15:14.391Z,8.53
2018-07-10T20:18:09.202Z,8.53
2018-07-10T20:20:39.371Z,7.70
2018-07-10T20:23:27.109Z,8.67
2018-07-10T20:26:06.375Z,9.20
2018-07-10T20:28:41.199Z,8.10
2018-07-10T20:32:17.379Z,8.50
2018-07-10T20:34:51.954Z,9.10
2018-07-10T20:37:25.506Z,8.90
2018-07-10T20:39:53.623Z,9.70
2018-07-10T20:42:21.751Z,10.13
2018-07-10T20:44:56.021Z,10.33
2018-07-10T20:47:24.239Z,11.03
2018-07-10T20:49:55.296Z,11.10
2018-07-10T20:54:05.259Z,11.43
2018-07-10T20:56:41.220Z,10.93
2018-07-10T20:59:12.583Z,12.40
2018-07-10T21:01:41.394Z,13.67
2018-07-10T21:04:19.620Z,12.83
2018-07-10T21:06:55.666Z,12.50
2018-07-10T21:09:33.828Z,11.20
2018-07-10T21:12:07.502Z,11.17
2018-07-10T21:14:40.983Z,10.87
2018-07-10T21:17:11.538Z,11.30
2018-07-10T21:20:09.135Z,10.27
2018-07-10T21:22:50.886Z,11.43
2018-07-10T21:25:23.232Z,12.27
2018-07-10T21:28:06.944Z,12.27
2018-07-10T21:30:43.616Z,11.17
2018-07-10T21:33:22.947Z,10.67
2018-07-10T21:35:51.926Z,11.43
2018-07-10T21:39:23.296Z,10.27
2018-07-10T21:42:03.692Z,11.00
2018-07-10T21:44:39.696Z,11.90
2018-07-10T21:47:13.051Z,11.80
2018-07-10T21:49:43.227Z,12.13
2018-07-10T21:52:11.667Z,10.67
2018-07-10T21:54:39.908Z,11.27
2018-07-10T21:57:08.036Z,11.30
2018-07-10T21:59:38.215Z,11.97
2018-07-10T22:02:08.048Z,12.27
2018-07-10T22:04:37.674Z,12.07
2018-07-10T22:07:08.356Z,12.13
2018-07-10T22:09:37.021Z,13.03
2018-07-10T22:12:07.079Z,13.93
2018-07-10T22:14:35.302Z,12.43
2018-07-10T22:17:04.583Z,13.40
2018-07-10T22:19:35.264Z,13.43
2018-07-10T22:22:03.371Z,15.30
2018-07-10T22:24:31.505Z,13.90
2018-07-10T22:27:00.026Z,16.40
2018-07-10T22:29:33.710Z,15.50
2018-07-10T22:32:07.048Z,16.13
2018-07-10T22:34:34.967Z,15.13
2018-07-10T22:37:03.078Z,16.20
2018-07-10T22:39:31.211Z,15.57
2018-07-10T22:41:59.736Z,17.63
2018-07-10T22:44:28.744Z,16.90
2018-07-10T22:46:58.033Z,16.83
2018-07-10T22:49:26.152Z,16.33
2018-07-10T22:51:55.965Z,17.93
2018-07-10T22:54:24.096Z,16.93
2018-07-10T22:56:52.216Z,18.40
2018-07-10T22:59:20.445Z,18.00
2018-07-10T23:01:48.581Z,17.43
2018-07-10T23:04:16.724Z,17.03
2018-07-10T23:06:44.857Z,17.07
2018-07-10T23:09:12.985Z,16.77
2018-07-10T23:11:41.143Z,17.47
2018-07-10T23:14:09.238Z,16.10
2018-07-10T23:16:38.564Z,16.53
2018-07-10T23:19:06.879Z,15.70
2018-07-10T23:21:36.216Z,15.30
2018-07-10T23:24:04.332Z,15.77
2018-07-10T23:26:32.749Z,14.93
2018-07-10T23:29:00.852Z,14.33
2018-07-10T23:31:30.068Z,14.90
2018-07-10T23:34:05.826Z,15.47
2018-07-10T23:36:34.839Z,15.10
2018-07-10T23:39:07.172Z,14.77
2018-07-10T23:41:51.989Z,14.03
2018-07-10T23:44:21.495Z,15.00
2018-07-10T23:46:55.627Z,16.30
2018-07-10T23:49:23.731Z,15.43
2018-07-10T23:52:03.493Z,15.17
2018-07-10T23:54:31.376Z,15.70
2018-07-10T23:56:59.505Z,14.97
2018-07-10T23:59:27.616Z,14.23
